sensor_id;sensor_type;location;lat;lon;timestamp;pressure;altitude;pressure_sealevel;temperature;humidity
48968;BME280;46511;53.148;8.204;2022-07-09T00:00:08;102709.38;;;16.75;100.00
48968;BME280;46511;53.148;8.204;2022-07-09T00:02:40;102724.06;;;16.85;100.00
48968;BME280;46511;53.148;8.204;2022-07-09T00:05:11;102722.97;;;16.90;100.00
48968;BME280;46511;53.148;8.204;2022-07-09T00:07:44;102718.56;;;16.89;100.00
48968;BME280;46511;53.148;8.204;2022-07-09T00:10:15;102716.50;;;16.76;100.00
48968;BME280;46511;53.148;8.204;2022-07-09T00:12:47;102714.75;;;16.75;100.00
48968;BME280;46511;53.148;8.204;2022-07-09T00:15:18;102703.22;;;16.56;100.00
48968;BME280;46511;53.148;8.204;2022-07-09T00:17:49;102720.72;;;16.63;100.00
48968;BME280;46511;53.148;8.204;2022-07-09T00:20:16;102712.41;;;16.69;100.00
48968;BME280;46511;53.148;8.204;2022-07-09T00:22:47;102711.72;;;16.64;100.00
48968;BME280;46511;53.148;8.204;2022-07-09T00:25:19;102707.63;;;16.57;100.00
48968;BME280;46511;53.148;8.204;2022-07-09T00:27:50;102701.06;;;16.45;100.00
48968;BME280;46511;53.148;8.204;2022-07-09T00:30:21;102704.31;;;16.35;100.00
48968;BME280;46511;53.148;8.204;2022-07-09T00:32:53;102704.06;;;16.22;100.00
48968;BME280;46511;53.148;8.204;2022-07-09T00:35:19;102693.63;;;16.16;100.00
48968;BME280;46511;53.148;8.204;2022-07-09T00:37:50;102694.47;;;15.99;100.00
48968;BME280;46511;53.148;8.204;2022-07-09T00:40:23;102697.00;;;16.02;100.00
48968;BME280;46511;53.148;8.204;2022-07-09T00:42:54;102699.03;;;15.97;100.00
48968;BME280;46511;53.148;8.204;2022-07-09T00:45:25;102690.38;;;15.92;100.00
48968;BME280;46511;53.148;8.204;2022-07-09T00:47:57;102692.47;;;15.85;100.00
48968;BME280;46511;53.148;8.204;2022-07-09T00:50:29;102696.88;;;15.86;100.00
48968;BME280;46511;53.148;8.204;2022-07-09T00:53:00;102689.22;;;15.79;100.00
48968;BME280;46511;53.148;8.204;2022-07-09T00:55:32;102688.69;;;15.70;100.00
48968;BME280;46511;53.148;8.204;2022-07-09T00:58:04;102690.66;;;15.67;100.00
48968;BME280;46511;53.148;8.204;2022-07-09T01:00:37;102693.56;;;15.62;100.00
48968;BME280;46511;53.148;8.204;2022-07-09T01:03:09;102683.91;;;15.58;100.00
48968;BME280;46511;53.148;8.204;2022-07-09T01:05:41;102682.91;;;15.61;100.00
48968;BME280;46511;53.148;8.204;2022-07-09T01:08:08;102672.13;;;15.62;100.00
48968;BME280;46511;53.148;8.204;2022-07-09T01:10:39;102669.31;;;15.65;100.00
48968;BME280;46511;53.148;8.204;2022-07-09T01:13:11;102670.25;;;15.64;100.00
48968;BME280;46511;53.148;8.204;2022-07-09T01:15:42;102674.00;;;15.60;100.00
48968;BME280;46511;53.148;8.204;2022-07-09T01:18:14;102674.41;;;15.51;100.00
48968;BME280;46511;53.148;8.204;2022-07-09T01:20:45;102667.75;;;15.60;100.00
48968;BME280;46511;53.148;8.204;2022-07-09T01:23:16;102665.97;;;15.60;100.00
48968;BME280;46511;53.148;8.204;2022-07-09T01:25:49;102666.88;;;15.59;100.00
48968;BME280;46511;53.148;8.204;2022-07-09T01:28:20;102661.41;;;15.62;100.00
48968;BME280;46511;53.148;8.204;2022-07-09T01:30:52;102665.03;;;15.61;100.00
48968;BME280;46511;53.148;8.204;2022-07-09T01:33:23;102658.94;;;15.58;100.00
48968;BME280;46511;53.148;8.204;2022-07-09T01:35:55;102654.44;;;15.58;100.00
48968;BME280;46511;53.148;8.204;2022-07-09T01:38:26;102663.28;;;15.60;100.00
48968;BME280;46511;53.148;8.204;2022-07-09T01:40:58;102654.50;;;15.57;100.00
48968;BME280;46511;53.148;8.204;2022-07-09T01:43:29;102655.47;;;15.56;100.00
48968;BME280;46511;53.148;8.204;2022-07-09T01:46:02;102645.44;;;15.59;100.00
48968;BME280;46511;53.148;8.204;2022-07-09T01:48:33;102643.88;;;15.55;100.00
48968;BME280;46511;53.148;8.204;2022-07-09T01:51:01;102637.28;;;15.62;100.00
48968;BME280;46511;53.148;8.204;2022-07-09T01:53:33;102630.53;;;15.73;100.00
48968;BME280;46511;53.148;8.204;2022-07-09T01:56:05;102631.34;;;15.75;100.00
48968;BME280;46511;53.148;8.204;2022-07-09T01:58:38;102634.59;;;15.81;100.00
48968;BME280;46511;53.148;8.204;2022-07-09T02:01:09;102634.22;;;15.89;100.00
48968;BME280;46511;53.148;8.204;2022-07-09T02:03:40;102632.81;;;15.99;100.00
48968;BME280;46511;53.148;8.204;2022-07-09T02:06:12;102629.34;;;15.97;100.00
48968;BME280;46511;53.148;8.204;2022-07-09T02:08:43;102626.97;;;16.08;100.00
48968;BME280;46511;53.148;8.204;2022-07-09T02:11:15;102628.97;;;16.22;100.00
48968;BME280;46511;53.148;8.204;2022-07-09T02:13:47;102621.72;;;16.24;100.00
48968;BME280;46511;53.148;8.204;2022-07-09T02:16:18;102610.75;;;16.28;100.00
48968;BME280;46511;53.148;8.204;2022-07-09T02:18:49;102604.19;;;16.17;100.00
48968;BME280;46511;53.148;8.204;2022-07-09T02:21:21;102613.75;;;16.22;100.00
48968;BME280;46511;53.148;8.204;2022-07-09T02:23:48;102608.53;;;16.37;100.00
48968;BME280;46511;53.148;8.204;2022-07-09T02:26:20;102600.09;;;16.27;100.00
48968;BME280;46511;53.148;8.204;2022-07-09T02:28:51;102601.72;;;16.47;100.00
48968;BME280;46511;53.148;8.204;2022-07-09T02:31:23;102604.75;;;16.41;100.00
48968;BME280;46511;53.148;8.204;2022-07-09T02:33:54;102594.41;;;16.50;100.00
48968;BME280;46511;53.148;8.204;2022-07-09T02:36:26;102588.97;;;16.17;100.00
48968;BME280;46511;53.148;8.204;2022-07-09T02:38:57;102593.94;;;16.42;100.00
48968;BME280;46511;53.148;8.204;2022-07-09T02:41:24;102590.06;;;16.48;100.00
48968;BME280;46511;53.148;8.204;2022-07-09T02:43:50;102595.41;;;16.48;100.00
48968;BME280;46511;53.148;8.204;2022-07-09T02:46:21;102589.81;;;16.52;100.00
48968;BME280;46511;53.148;8.204;2022-07-09T02:48:53;102583.97;;;16.62;100.00
48968;BME280;46511;53.148;8.204;2022-07-09T02:51:19;102580.56;;;16.58;100.00
48968;BME280;46511;53.148;8.204;2022-07-09T02:53:51;102581.31;;;16.44;100.00
48968;BME280;46511;53.148;8.204;2022-07-09T02:56:22;102576.53;;;16.67;100.00
48968;BME280;46511;53.148;8.204;2022-07-09T02:58:53;102575.38;;;16.72;100.00
48968;BME280;46511;53.148;8.204;2022-07-09T03:01:20;102581.19;;;16.63;100.00
48968;BME280;46511;53.148;8.204;2022-07-09T03:03:51;102572.88;;;16.52;100.00
48968;BME280;46511;53.148;8.204;2022-07-09T03:06:23;102579.19;;;16.51;100.00
48968;BME280;46511;53.148;8.204;2022-07-09T03:08:54;102581.88;;;16.68;100.00
48968;BME280;46511;53.148;8.204;2022-07-09T03:11:21;102580.75;;;16.72;100.00
48968;BME280;46511;53.148;8.204;2022-07-09T03:13:52;102583.59;;;16.52;100.00
48968;BME280;46511;53.148;8.204;2022-07-09T03:16:23;102579.47;;;16.62;100.00
48968;BME280;46511;53.148;8.204;2022-07-09T03:18:50;102579.97;;;16.70;100.00
48968;BME280;46511;53.148;8.204;2022-07-09T03:21:16;102578.16;;;16.87;100.00
48968;BME280;46511;53.148;8.204;2022-07-09T03:23:48;102573.38;;;16.76;100.00
48968;BME280;46511;53.148;8.204;2022-07-09T03:26:19;102570.78;;;16.74;100.00
48968;BME280;46511;53.148;8.204;2022-07-09T03:28:50;102568.09;;;16.74;100.00
48968;BME280;46511;53.148;8.204;2022-07-09T03:31:22;102566.56;;;16.86;100.00
48968;BME280;46511;53.148;8.204;2022-07-09T03:33:53;102570.38;;;16.65;100.00
48968;BME280;46511;53.148;8.204;2022-07-09T03:36:25;102555.13;;;16.82;100.00
48968;BME280;46511;53.148;8.204;2022-07-09T03:38:56;102548.72;;;16.85;100.00
48968;BME280;46511;53.148;8.204;2022-07-09T03:41:27;102548.13;;;16.96;100.00
48968;BME280;46511;53.148;8.204;2022-07-09T03:43:54;102555.50;;;16.92;100.00
48968;BME280;46511;53.148;8.204;2022-07-09T03:46:25;102551.84;;;16.77;100.00
48968;BME280;46511;53.148;8.204;2022-07-09T03:48:57;102549.31;;;16.74;100.00
48968;BME280;46511;53.148;8.204;2022-07-09T03:51:23;102547.34;;;16.94;100.00
48968;BME280;46511;53.148;8.204;2022-07-09T03:53:54;102557.53;;;16.71;100.00
48968;BME280;46511;53.148;8.204;2022-07-09T03:56:26;102553.59;;;16.78;100.00
48968;BME280;46511;53.148;8.204;2022-07-09T03:58:57;102563.50;;;16.76;100.00
48968;BME280;46511;53.148;8.204;2022-07-09T04:01:28;102567.41;;;16.87;100.00
48968;BME280;46511;53.148;8.204;2022-07-09T04:04:00;102566.41;;;17.05;100.00
48968;BME280;46511;53.148;8.204;2022-07-09T04:06:31;102568.69;;;16.97;100.00
48968;BME280;46511;53.148;8.204;2022-07-09T04:09:02;102563.81;;;17.03;100.00
48968;BME280;46511;53.148;8.204;2022-07-09T04:11:35;102556.63;;;17.04;100.00
48968;BME280;46511;53.148;8.204;2022-07-09T04:14:06;102558.28;;;17.22;100.00
48968;BME280;46511;53.148;8.204;2022-07-09T04:16:38;102550.06;;;17.25;100.00
48968;BME280;46511;53.148;8.204;2022-07-09T04:19:09;102547.63;;;17.36;100.00
48968;BME280;46511;53.148;8.204;2022-07-09T04:21:41;102558.13;;;17.25;100.00
48968;BME280;46511;53.148;8.204;2022-07-09T04:24:12;102543.22;;;17.35;100.00
48968;BME280;46511;53.148;8.204;2022-07-09T04:26:42;102550.66;;;17.30;100.00
48968;BME280;46511;53.148;8.204;2022-07-09T04:29:14;102545.28;;;17.46;100.00
48968;BME280;46511;53.148;8.204;2022-07-09T04:31:45;102553.44;;;17.45;100.00
48968;BME280;46511;53.148;8.204;2022-07-09T04:34:16;102543.50;;;17.61;100.00
48968;BME280;46511;53.148;8.204;2022-07-09T04:36:48;102543.50;;;17.61;100.00
48968;BME280;46511;53.148;8.204;2022-07-09T04:39:20;102536.66;;;17.71;100.00
48968;BME280;46511;53.148;8.204;2022-07-09T04:41:53;102540.84;;;17.77;100.00
48968;BME280;46511;53.148;8.204;2022-07-09T04:44:25;102536.72;;;17.85;100.00
48968;BME280;46511;53.148;8.204;2022-07-09T04:46:51;102538.09;;;17.92;100.00
48968;BME280;46511;53.148;8.204;2022-07-09T04:49:22;102534.88;;;18.02;100.00
48968;BME280;46511;53.148;8.204;2022-07-09T04:51:55;102536.63;;;17.87;100.00
48968;BME280;46511;53.148;8.204;2022-07-09T04:54:26;102543.59;;;18.05;100.00
48968;BME280;46511;53.148;8.204;2022-07-09T04:56:58;102536.75;;;18.30;100.00
48968;BME280;46511;53.148;8.204;2022-07-09T04:59:29;102540.88;;;18.35;100.00
48968;BME280;46511;53.148;8.204;2022-07-09T05:02:01;102545.84;;;18.13;100.00
48968;BME280;46511;53.148;8.204;2022-07-09T05:04:32;102546.44;;;18.32;100.00
48968;BME280;46511;53.148;8.204;2022-07-09T05:07:03;102555.00;;;18.53;100.00
48968;BME280;46511;53.148;8.204;2022-07-09T05:09:36;102549.53;;;18.40;100.00
48968;BME280;46511;53.148;8.204;2022-07-09T05:12:08;102555.38;;;18.47;100.00
48968;BME280;46511;53.148;8.204;2022-07-09T05:14:36;102553.34;;;18.36;100.00
48968;BME280;46511;53.148;8.204;2022-07-09T05:17:09;102546.09;;;18.38;100.00
48968;BME280;46511;53.148;8.204;2022-07-09T05:19:40;102555.53;;;18.15;100.00
48968;BME280;46511;53.148;8.204;2022-07-09T05:22:12;102550.81;;;18.19;100.00
48968;BME280;46511;53.148;8.204;2022-07-09T05:24:43;102533.91;;;18.03;100.00
48968;BME280;46511;53.148;8.204;2022-07-09T05:27:14;102534.72;;;18.62;100.00
48968;BME280;46511;53.148;8.204;2022-07-09T05:29:46;102530.13;;;18.92;100.00
48968;BME280;46511;53.148;8.204;2022-07-09T05:32:12;102529.56;;;18.59;100.00
48968;BME280;46511;53.148;8.204;2022-07-09T05:34:44;102534.25;;;18.98;100.00
48968;BME280;46511;53.148;8.204;2022-07-09T05:37:15;102538.47;;;19.16;100.00
48968;BME280;46511;53.148;8.204;2022-07-09T05:39:47;102542.78;;;19.19;100.00
48968;BME280;46511;53.148;8.204;2022-07-09T05:42:18;102529.66;;;19.27;100.00
48968;BME280;46511;53.148;8.204;2022-07-09T05:44:49;102530.81;;;19.50;100.00
48968;BME280;46511;53.148;8.204;2022-07-09T05:47:21;102520.66;;;19.40;100.00
48968;BME280;46511;53.148;8.204;2022-07-09T05:49:52;102535.75;;;19.57;100.00
48968;BME280;46511;53.148;8.204;2022-07-09T05:52:23;102526.81;;;19.69;100.00
48968;BME280;46511;53.148;8.204;2022-07-09T05:54:55;102531.44;;;20.07;100.00
48968;BME280;46511;53.148;8.204;2022-07-09T05:57:26;102536.91;;;19.53;100.00
48968;BME280;46511;53.148;8.204;2022-07-09T05:59:57;102530.00;;;19.89;100.00
48968;BME280;46511;53.148;8.204;2022-07-09T06:02:29;102533.59;;;20.02;100.00
48968;BME280;46511;53.148;8.204;2022-07-09T06:05:00;102534.47;;;20.03;100.00
48968;BME280;46511;53.148;8.204;2022-07-09T06:07:31;102539.00;;;20.15;99.47
48968;BME280;46511;53.148;8.204;2022-07-09T06:10:03;102530.25;;;20.37;99.39
48968;BME280;46511;53.148;8.204;2022-07-09T06:12:34;102534.91;;;20.35;98.49
48968;BME280;46511;53.148;8.204;2022-07-09T06:15:06;102534.09;;;20.47;97.69
48968;BME280;46511;53.148;8.204;2022-07-09T06:17:38;102532.44;;;20.32;98.75
48968;BME280;46511;53.148;8.204;2022-07-09T06:20:10;102536.19;;;20.04;99.98
48968;BME280;46511;53.148;8.204;2022-07-09T06:22:42;102536.03;;;19.80;100.00
48968;BME280;46511;53.148;8.204;2022-07-09T06:25:13;102547.16;;;19.88;100.00
48968;BME280;46511;53.148;8.204;2022-07-09T06:27:44;102545.66;;;19.96;100.00
48968;BME280;46511;53.148;8.204;2022-07-09T06:30:16;102544.66;;;20.37;98.49
48968;BME280;46511;53.148;8.204;2022-07-09T06:32:47;102544.19;;;20.18;98.71
48968;BME280;46511;53.148;8.204;2022-07-09T06:35:18;102548.94;;;20.14;98.55
48968;BME280;46511;53.148;8.204;2022-07-09T06:37:50;102540.50;;;20.06;99.63
48968;BME280;46511;53.148;8.204;2022-07-09T06:40:21;102541.22;;;20.48;98.21
48968;BME280;46511;53.148;8.204;2022-07-09T06:42:53;102533.44;;;21.66;92.30
48968;BME280;46511;53.148;8.204;2022-07-09T06:45:24;102532.31;;;21.92;90.08
48968;BME280;46511;53.148;8.204;2022-07-09T06:47:55;102537.97;;;21.89;89.51
48968;BME280;46511;53.148;8.204;2022-07-09T06:50:27;102536.63;;;21.95;89.81
48968;BME280;46511;53.148;8.204;2022-07-09T06:52:58;102527.25;;;21.29;91.57
48968;BME280;46511;53.148;8.204;2022-07-09T06:55:29;102530.25;;;20.88;94.55
48968;BME280;46511;53.148;8.204;2022-07-09T06:58:02;102524.59;;;21.40;92.09
48968;BME280;46511;53.148;8.204;2022-07-09T07:00:33;102527.13;;;21.30;91.57
48968;BME280;46511;53.148;8.204;2022-07-09T07:03:04;102531.72;;;21.89;88.11
48968;BME280;46511;53.148;8.204;2022-07-09T07:05:36;102526.13;;;21.79;90.19
48968;BME280;46511;53.148;8.204;2022-07-09T07:08:07;102523.75;;;21.99;87.90
48968;BME280;46511;53.148;8.204;2022-07-09T07:10:34;102523.28;;;21.46;89.37
48968;BME280;46511;53.148;8.204;2022-07-09T07:13:05;102518.63;;;21.48;89.70
48968;BME280;46511;53.148;8.204;2022-07-09T07:15:37;102533.59;;;22.00;88.18
48968;BME280;46511;53.148;8.204;2022-07-09T07:18:08;102530.81;;;22.23;86.76
48968;BME280;46511;53.148;8.204;2022-07-09T07:20:39;102521.88;;;22.68;84.31
48968;BME280;46511;53.148;8.204;2022-07-09T07:23:06;102522.41;;;22.84;85.28
48968;BME280;46511;53.148;8.204;2022-07-09T07:25:37;102511.75;;;23.15;82.46
48968;BME280;46511;53.148;8.204;2022-07-09T07:28:08;102509.69;;;23.39;80.63
48968;BME280;46511;53.148;8.204;2022-07-09T07:30:40;102519.44;;;22.87;81.61
48968;BME280;46511;53.148;8.204;2022-07-09T07:33:11;102519.66;;;22.62;82.78
48968;BME280;46511;53.148;8.204;2022-07-09T07:35:46;102517.69;;;22.30;84.66
48968;BME280;46511;53.148;8.204;2022-07-09T07:38:17;102515.47;;;21.54;88.47
48968;BME280;46511;53.148;8.204;2022-07-09T07:40:49;102521.50;;;21.92;87.30
48968;BME280;46511;53.148;8.204;2022-07-09T07:43:20;102512.50;;;22.72;84.51
48968;BME280;46511;53.148;8.204;2022-07-09T07:45:51;102511.78;;;22.70;83.82
48968;BME280;46511;53.148;8.204;2022-07-09T07:48:23;102515.22;;;22.72;83.36
48968;BME280;46511;53.148;8.204;2022-07-09T07:50:54;102510.78;;;22.82;82.43
48968;BME280;46511;53.148;8.204;2022-07-09T07:53:25;102511.56;;;22.95;83.33
48968;BME280;46511;53.148;8.204;2022-07-09T07:55:57;102507.59;;;22.77;83.89
48968;BME280;46511;53.148;8.204;2022-07-09T07:58:29;102512.03;;;22.56;84.40
48968;BME280;46511;53.148;8.204;2022-07-09T08:01:00;102514.50;;;22.92;83.11
48968;BME280;46511;53.148;8.204;2022-07-09T08:03:32;102509.31;;;22.33;83.97
48968;BME280;46511;53.148;8.204;2022-07-09T08:06:03;102503.13;;;23.09;81.41
48968;BME280;46511;53.148;8.204;2022-07-09T08:08:35;102506.94;;;24.24;77.48
48968;BME280;46511;53.148;8.204;2022-07-09T08:11:07;102512.25;;;24.05;76.67
48968;BME280;46511;53.148;8.204;2022-07-09T08:13:38;102502.06;;;23.44;78.27
48968;BME280;46511;53.148;8.204;2022-07-09T08:16:10;102503.94;;;23.32;78.89
48968;BME280;46511;53.148;8.204;2022-07-09T08:18:41;102499.47;;;22.32;81.63
48968;BME280;46511;53.148;8.204;2022-07-09T08:21:13;102498.16;;;23.26;79.73
48968;BME280;46511;53.148;8.204;2022-07-09T08:23:45;102486.75;;;24.38;74.94
48968;BME280;46511;53.148;8.204;2022-07-09T08:26:25;102498.34;;;24.19;74.24
48968;BME280;46511;53.148;8.204;2022-07-09T08:28:57;102492.50;;;25.83;68.66
48968;BME280;46511;53.148;8.204;2022-07-09T08:31:29;102494.75;;;27.72;61.93
48968;BME280;46511;53.148;8.204;2022-07-09T08:34:00;102485.31;;;29.12;53.01
48968;BME280;46511;53.148;8.204;2022-07-09T08:36:31;102490.97;;;28.34;53.58
48968;BME280;46511;53.148;8.204;2022-07-09T08:39:03;102486.97;;;28.97;51.47
48968;BME280;46511;53.148;8.204;2022-07-09T08:41:34;102485.75;;;29.58;52.03
48968;BME280;46511;53.148;8.204;2022-07-09T08:44:06;102477.50;;;29.99;48.07
48968;BME280;46511;53.148;8.204;2022-07-09T08:46:41;102465.72;;;30.54;44.85
48968;BME280;46511;53.148;8.204;2022-07-09T08:49:13;102463.84;;;29.50;47.85
48968;BME280;46511;53.148;8.204;2022-07-09T08:51:46;102474.28;;;29.71;47.18
48968;BME280;46511;53.148;8.204;2022-07-09T08:54:20;102476.59;;;28.06;48.16
48968;BME280;46511;53.148;8.204;2022-07-09T08:56:51;102471.44;;;26.41;53.61
48968;BME280;46511;53.148;8.204;2022-07-09T08:59:23;102463.06;;;26.53;53.98
48968;BME280;46511;53.148;8.204;2022-07-09T09:01:54;102468.03;;;26.94;50.45
48968;BME280;46511;53.148;8.204;2022-07-09T09:04:26;102465.00;;;28.12;48.61
48968;BME280;46511;53.148;8.204;2022-07-09T09:06:57;102453.84;;;29.24;45.79
48968;BME280;46511;53.148;8.204;2022-07-09T09:09:28;102460.50;;;29.14;44.30
48968;BME280;46511;53.148;8.204;2022-07-09T09:12:05;102452.84;;;30.07;41.65
48968;BME280;46511;53.148;8.204;2022-07-09T09:14:37;102453.53;;;30.09;41.50
48968;BME280;46511;53.148;8.204;2022-07-09T09:17:07;102439.47;;;30.12;41.34
48968;BME280;46511;53.148;8.204;2022-07-09T09:19:42;102434.50;;;30.55;40.76
48968;BME280;46511;53.148;8.204;2022-07-09T09:22:14;102445.25;;;31.04;39.32
48968;BME280;46511;53.148;8.204;2022-07-09T09:24:50;102434.72;;;29.41;42.93
48968;BME280;46511;53.148;8.204;2022-07-09T09:27:28;102439.50;;;28.04;47.75
48968;BME280;46511;53.148;8.204;2022-07-09T09:30:01;102442.13;;;26.98;50.29
48968;BME280;46511;53.148;8.204;2022-07-09T09:32:33;102446.38;;;26.28;52.11
48968;BME280;46511;53.148;8.204;2022-07-09T09:35:05;102447.53;;;25.69;54.71
48968;BME280;46511;53.148;8.204;2022-07-09T09:37:36;102449.25;;;25.70;55.14
48968;BME280;46511;53.148;8.204;2022-07-09T09:40:09;102457.81;;;25.56;56.56
48968;BME280;46511;53.148;8.204;2022-07-09T09:42:42;102462.06;;;26.16;54.10
48968;BME280;46511;53.148;8.204;2022-07-09T09:45:11;102459.94;;;26.47;53.25
48968;BME280;46511;53.148;8.204;2022-07-09T09:47:47;102452.50;;;27.84;49.70
48968;BME280;46511;53.148;8.204;2022-07-09T09:50:24;102440.53;;;29.78;43.49
48968;BME280;46511;53.148;8.204;2022-07-09T09:52:56;102439.09;;;30.70;42.83
48968;BME280;46511;53.148;8.204;2022-07-09T09:55:28;102438.38;;;32.21;38.03
48968;BME280;46511;53.148;8.204;2022-07-09T09:57:55;102441.88;;;31.62;37.82
48968;BME280;46511;53.148;8.204;2022-07-09T10:00:27;102437.72;;;30.03;40.71
48968;BME280;46511;53.148;8.204;2022-07-09T10:02:59;102443.22;;;27.15;45.90
48968;BME280;46511;53.148;8.204;2022-07-09T10:05:32;102446.69;;;27.79;46.29
48968;BME280;46511;53.148;8.204;2022-07-09T10:08:04;102450.53;;;27.32;45.56
48968;BME280;46511;53.148;8.204;2022-07-09T10:10:35;102456.44;;;27.28;46.75
48968;BME280;46511;53.148;8.204;2022-07-09T10:13:07;102445.88;;;26.97;47.93
48968;BME280;46511;53.148;8.204;2022-07-09T10:15:38;102454.94;;;26.70;49.71
48968;BME280;46511;53.148;8.204;2022-07-09T10:18:20;102463.41;;;26.95;48.20
48968;BME280;46511;53.148;8.204;2022-07-09T10:20:55;102457.53;;;26.44;49.90
48968;BME280;46511;53.148;8.204;2022-07-09T10:23:28;102456.06;;;27.05;47.79
48968;BME280;46511;53.148;8.204;2022-07-09T10:25:59;102455.50;;;26.00;50.20
48968;BME280;46511;53.148;8.204;2022-07-09T10:28:25;102457.78;;;27.24;47.93
48968;BME280;46511;53.148;8.204;2022-07-09T10:31:06;102454.03;;;27.25;46.27
48968;BME280;46511;53.148;8.204;2022-07-09T10:33:37;102450.41;;;29.14;43.34
48968;BME280;46511;53.148;8.204;2022-07-09T10:36:20;102452.97;;;32.06;38.00
48968;BME280;46511;53.148;8.204;2022-07-09T10:38:54;102440.97;;;34.77;32.28
48968;BME280;46511;53.148;8.204;2022-07-09T10:41:28;102444.38;;;35.54;30.76
48968;BME280;46511;53.148;8.204;2022-07-09T10:43:59;102445.78;;;34.14;30.98
48968;BME280;46511;53.148;8.204;2022-07-09T10:46:31;102439.25;;;32.06;33.85
48968;BME280;46511;53.148;8.204;2022-07-09T10:49:02;102449.06;;;31.25;35.20
48968;BME280;46511;53.148;8.204;2022-07-09T10:51:33;102445.63;;;31.01;35.74
48968;BME280;46511;53.148;8.204;2022-07-09T10:54:14;102445.78;;;32.05;34.25
48968;BME280;46511;53.148;8.204;2022-07-09T10:56:41;102448.34;;;30.69;35.90
48968;BME280;46511;53.148;8.204;2022-07-09T10:59:15;102454.88;;;28.65;40.61
48968;BME280;46511;53.148;8.204;2022-07-09T11:01:48;102452.69;;;28.08;43.50
48968;BME280;46511;53.148;8.204;2022-07-09T11:04:25;102454.81;;;27.17;45.03
48968;BME280;46511;53.148;8.204;2022-07-09T11:06:58;102453.59;;;27.29;44.45
48968;BME280;46511;53.148;8.204;2022-07-09T11:09:29;102465.50;;;26.09;48.10
48968;BME280;46511;53.148;8.204;2022-07-09T11:12:01;102463.72;;;25.32;50.96
48968;BME280;46511;53.148;8.204;2022-07-09T11:14:32;102473.19;;;24.88;53.12
48968;BME280;46511;53.148;8.204;2022-07-09T11:17:04;102485.03;;;23.95;62.82
48968;BME280;46511;53.148;8.204;2022-07-09T11:19:35;102488.94;;;23.49;67.58
48968;BME280;46511;53.148;8.204;2022-07-09T11:22:06;102490.72;;;22.96;71.32
48968;BME280;46511;53.148;8.204;2022-07-09T11:24:38;102497.97;;;23.38;65.43
48968;BME280;46511;53.148;8.204;2022-07-09T11:27:09;102495.19;;;24.65;59.69
48968;BME280;46511;53.148;8.204;2022-07-09T11:29:45;102495.78;;;25.96;54.54
48968;BME280;46511;53.148;8.204;2022-07-09T11:32:18;102487.06;;;30.27;43.04
48968;BME280;46511;53.148;8.204;2022-07-09T11:34:49;102486.75;;;32.74;34.79
48968;BME280;46511;53.148;8.204;2022-07-09T11:37:23;102494.91;;;32.67;35.16
48968;BME280;46511;53.148;8.204;2022-07-09T11:39:58;102494.56;;;35.84;31.56
48968;BME280;46511;53.148;8.204;2022-07-09T11:42:30;102488.50;;;35.14;31.53
48968;BME280;46511;53.148;8.204;2022-07-09T11:45:01;102492.03;;;33.91;31.82
48968;BME280;46511;53.148;8.204;2022-07-09T11:47:33;102493.69;;;35.70;28.97
48968;BME280;46511;53.148;8.204;2022-07-09T11:50:10;102491.53;;;36.38;28.80
48968;BME280;46511;53.148;8.204;2022-07-09T11:52:43;102495.59;;;36.09;28.91
48968;BME280;46511;53.148;8.204;2022-07-09T11:55:28;102484.13;;;37.22;27.90
48968;BME280;46511;53.148;8.204;2022-07-09T11:58:06;102489.28;;;36.67;27.72
48968;BME280;46511;53.148;8.204;2022-07-09T12:00:39;102496.31;;;35.04;29.48
48968;BME280;46511;53.148;8.204;2022-07-09T12:03:11;102498.84;;;31.91;33.48
48968;BME280;46511;53.148;8.204;2022-07-09T12:05:43;102495.16;;;31.38;35.32
48968;BME280;46511;53.148;8.204;2022-07-09T12:08:14;102486.78;;;33.10;31.71
48968;BME280;46511;53.148;8.204;2022-07-09T12:10:45;102477.31;;;33.56;31.29
48968;BME280;46511;53.148;8.204;2022-07-09T12:13:12;102474.28;;;33.50;30.99
48968;BME280;46511;53.148;8.204;2022-07-09T12:15:43;102480.25;;;30.15;36.83
48968;BME280;46511;53.148;8.204;2022-07-09T12:18:15;102485.31;;;28.62;40.81
48968;BME280;46511;53.148;8.204;2022-07-09T12:20:46;102500.28;;;27.44;43.98
48968;BME280;46511;53.148;8.204;2022-07-09T12:23:17;102509.44;;;27.71;43.34
48968;BME280;46511;53.148;8.204;2022-07-09T12:25:49;102504.53;;;31.21;37.41
48968;BME280;46511;53.148;8.204;2022-07-09T12:28:20;102500.97;;;30.73;35.50
48968;BME280;46511;53.148;8.204;2022-07-09T12:30:52;102499.91;;;30.82;35.31
48968;BME280;46511;53.148;8.204;2022-07-09T12:33:23;102497.03;;;30.04;36.90
48968;BME280;46511;53.148;8.204;2022-07-09T12:35:54;102499.06;;;28.52;39.02
48968;BME280;46511;53.148;8.204;2022-07-09T12:38:26;102500.09;;;28.25;41.00
48968;BME280;46511;53.148;8.204;2022-07-09T12:40:57;102489.88;;;30.97;35.36
48968;BME280;46511;53.148;8.204;2022-07-09T12:43:28;102495.84;;;32.16;33.28
48968;BME280;46511;53.148;8.204;2022-07-09T12:46:00;102491.88;;;30.25;35.75
48968;BME280;46511;53.148;8.204;2022-07-09T12:48:31;102499.88;;;29.37;37.22
48968;BME280;46511;53.148;8.204;2022-07-09T12:50:58;102504.41;;;27.84;39.89
48968;BME280;46511;53.148;8.204;2022-07-09T12:53:29;102502.13;;;26.43;44.21
48968;BME280;46511;53.148;8.204;2022-07-09T12:56:00;102511.13;;;27.72;40.43
48968;BME280;46511;53.148;8.204;2022-07-09T12:58:32;102499.78;;;30.67;34.53
48968;BME280;46511;53.148;8.204;2022-07-09T13:01:03;102495.50;;;32.48;31.39
48968;BME280;46511;53.148;8.204;2022-07-09T13:03:30;102499.94;;;33.94;28.01
48968;BME280;46511;53.148;8.204;2022-07-09T13:06:01;102494.66;;;33.35;28.69